createdAt,value
2022-11-17T00:00:35.170Z,9.33
2022-11-17T00:03:05.349Z,9.30
2022-11-17T00:05:35.376Z,9.28
2022-11-17T00:08:03.281Z,9.25
2022-11-17T00:10:31.238Z,9.30
2022-11-17T00:13:17.740Z,9.29
2022-11-17T00:15:45.930Z,9.27
2022-11-17T00:18:32.520Z,9.27
2022-11-17T00:21:23.675Z,9.21
2022-11-17T00:23:51.812Z,9.17
2022-11-17T00:26:21.791Z,9.19
2022-11-17T00:28:54.725Z,9.17
2022-11-17T00:31:42.312Z,9.18
2022-11-17T00:34:12.834Z,9.24
2022-11-17T00:36:45.131Z,9.29
2022-11-17T00:39:13.619Z,9.32
2022-11-17T00:41:41.596Z,9.37
2022-11-17T00:44:10.057Z,9.41
2022-11-17T00:46:38.643Z,9.46
2022-11-17T00:49:07.517Z,9.40
2022-11-17T00:51:35.911Z,9.46
2022-11-17T00:54:05.311Z,9.42
2022-11-17T00:56:34.099Z,9.39
2022-11-17T00:59:02.202Z,9.45
2022-11-17T01:01:30.474Z,9.40
2022-11-17T01:04:04.965Z,9.37
2022-11-17T01:06:34.272Z,9.35
2022-11-17T01:09:03.560Z,9.23
2022-11-17T01:11:31.732Z,9.14
2022-11-17T01:14:00.726Z,9.10
2022-11-17T01:16:29.672Z,9.07
2022-11-17T01:18:59.739Z,9.15
2022-11-17T01:21:28.519Z,9.09
2022-11-17T01:23:57.517Z,9.08
2022-11-17T01:26:26.542Z,9.17
2022-11-17T01:28:54.826Z,9.24
2022-11-17T01:31:24.181Z,9.29
2022-11-17T01:33:52.527Z,9.28
2022-11-17T01:36:22.194Z,9.23
2022-11-17T01:38:50.241Z,9.27
2022-11-17T01:41:21.274Z,9.25
2022-11-17T01:43:49.421Z,9.20
2022-11-17T01:46:38.002Z,9.22
2022-11-17T01:49:18.363Z,9.34
2022-11-17T01:51:48.759Z,9.38
2022-11-17T01:54:18.257Z,9.42
2022-11-17T01:56:48.376Z,9.44
2022-11-17T01:59:20.301Z,9.40
2022-11-17T02:02:06.502Z,9.26
2022-11-17T02:04:44.404Z,9.21
2022-11-17T02:07:33.087Z,9.25
2022-11-17T02:10:01.904Z,9.26
2022-11-17T02:12:31.920Z,9.28
2022-11-17T02:15:00.499Z,9.35
2022-11-17T02:17:37.222Z,9.38
2022-11-17T02:20:05.378Z,9.46
2022-11-17T02:22:39.253Z,9.46
2022-11-17T02:25:16.394Z,9.44
2022-11-17T02:27:44.390Z,9.51
2022-11-17T02:30:14.217Z,9.53
2022-11-17T02:32:57.205Z,9.55
2022-11-17T02:35:25.203Z,9.61
2022-11-17T02:38:05.421Z,9.65
2022-11-17T02:41:03.041Z,9.74
2022-11-17T02:44:07.017Z,9.71
2022-11-17T02:46:41.269Z,9.67
2022-11-17T02:49:29.864Z,9.67
2022-11-17T02:51:58.895Z,9.78
2022-11-17T02:54:28.983Z,9.84
2022-11-17T02:56:56.879Z,9.77
2022-11-17T02:59:33.982Z,9.79
2022-11-17T03:02:01.867Z,9.76
2022-11-17T03:04:34.722Z,9.84
2022-11-17T03:07:22.057Z,9.91
2022-11-17T03:10:03.540Z,9.90
2022-11-17T03:12:39.190Z,9.93
2022-11-17T03:15:17.826Z,9.88
2022-11-17T03:18:11.247Z,9.83
2022-11-17T03:20:39.317Z,9.95
2022-11-17T03:23:10.459Z,9.88
2022-11-17T03:25:43.037Z,9.76
2022-11-17T03:28:12.253Z,9.81
2022-11-17T03:30:42.077Z,9.83
2022-11-17T03:33:15.357Z,9.79
2022-11-17T03:35:50.641Z,9.83
2022-11-17T03:38:21.004Z,9.87
2022-11-17T03:40:50.715Z,9.95
2022-11-17T03:43:20.623Z,10.02
2022-11-17T03:45:50.385Z,10.12
2022-11-17T03:48:27.548Z,10.10
2022-11-17T03:50:59.290Z,10.16
2022-11-17T03:53:27.169Z,10.13
2022-11-17T03:56:13.549Z,10.12
2022-11-17T03:58:50.059Z,10.12
2022-11-17T04:01:20.106Z,10.08
2022-11-17T04:03:48.401Z,10.00
2022-11-17T04:06:16.675Z,9.95
2022-11-17T04:08:44.753Z,9.88
2022-11-17T04:11:31.292Z,9.85
2022-11-17T04:14:17.941Z,9.88
2022-11-17T04:16:46.131Z,9.80
2022-11-17T04:19:14.232Z,9.78
2022-11-17T04:21:42.175Z,9.72
2022-11-17T04:24:10.075Z,9.70
2022-11-17T04:26:56.946Z,9.71
2022-11-17T04:29:25.038Z,9.66
2022-11-17T04:31:52.880Z,9.70
2022-11-17T04:34:20.916Z,9.74
2022-11-17T04:36:48.795Z,9.69
2022-11-17T04:39:16.965Z,9.73
2022-11-17T04:41:54.229Z,9.79
2022-11-17T04:44:26.956Z,9.77
2022-11-17T04:46:55.945Z,9.77
2022-11-17T04:49:24.957Z,9.83
2022-11-17T04:51:53.736Z,9.90
2022-11-17T04:54:24.593Z,9.93
2022-11-17T04:56:53.228Z,9.91
2022-11-17T04:59:21.829Z,10.00
2022-11-17T05:01:50.288Z,10.11
2022-11-17T05:04:39.683Z,10.11
2022-11-17T05:07:08.485Z,10.08
2022-11-17T05:09:36.843Z,10.06
2022-11-17T05:12:23.525Z,10.08
2022-11-17T05:14:52.621Z,10.12
2022-11-17T05:17:20.819Z,10.16
2022-11-17T05:19:49.305Z,10.25
2022-11-17T05:22:37.855Z,10.35
2022-11-17T05:25:05.903Z,10.40
2022-11-17T05:27:34.605Z,10.36
2022-11-17T05:30:03.597Z,10.34
2022-11-17T05:32:31.545Z,10.36
2022-11-17T05:34:59.749Z,10.33
2022-11-17T05:37:28.012Z,10.26
2022-11-17T05:39:56.051Z,10.29
2022-11-17T05:42:24.331Z,10.36
2022-11-17T05:44:52.375Z,10.35
2022-11-17T05:47:20.284Z,10.42
2022-11-17T05:49:48.267Z,10.49
2022-11-17T05:52:16.249Z,10.56
2022-11-17T05:54:44.309Z,10.64
2022-11-17T05:57:14.795Z,10.65
2022-11-17T05:59:45.965Z,10.62
2022-11-17T06:02:16.615Z,10.62
2022-11-17T06:04:46.518Z,10.71
2022-11-17T06:07:15.868Z,10.74
2022-11-17T06:09:43.828Z,10.71
2022-11-17T06:12:15.606Z,10.67
2022-11-17T06:14:43.819Z,10.73
2022-11-17T06:17:23.363Z,10.89
2022-11-17T06:19:54.914Z,11.06
2022-11-17T06:22:24.311Z,11.31
2022-11-17T06:24:52.962Z,11.48
2022-11-17T06:27:21.170Z,11.54
2022-11-17T06:29:49.924Z,11.52
2022-11-17T06:32:19.249Z,11.53
2022-11-17T06:34:54.917Z,11.62
2022-11-17T06:37:24.665Z,11.65
2022-11-17T06:39:52.806Z,11.59
2022-11-17T06:42:40.621Z,11.55
2022-11-17T06:45:08.839Z,11.48
2022-11-17T06:47:36.619Z,11.39
2022-11-17T06:50:05.072Z,11.36
2022-11-17T06:52:33.221Z,11.37
2022-11-17T06:55:01.285Z,11.40
2022-11-17T06:57:30.073Z,11.42
2022-11-17T06:59:58.147Z,11.46
2022-11-17T07:02:26.117Z,11.51
2022-11-17T07:04:54.246Z,11.56
2022-11-17T07:07:22.388Z,11.64
2022-11-17T07:09:50.797Z,11.61
2022-11-17T07:12:18.912Z,11.61
2022-11-17T07:14:46.978Z,11.65
2022-11-17T07:17:15.049Z,11.55
2022-11-17T07:19:43.220Z,11.54
2022-11-17T07:22:11.294Z,11.63
2022-11-17T07:24:39.567Z,11.64
2022-11-17T07:27:08.268Z,11.66
2022-11-17T07:29:36.529Z,11.78
2022-11-17T07:32:05.031Z,11.84
2022-11-17T07:34:33.285Z,11.88
2022-11-17T07:37:01.560Z,11.93
2022-11-17T07:39:29.532Z,11.94
2022-11-17T07:41:57.494Z,11.89
2022-11-17T07:44:26.798Z,11.86
2022-11-17T07:46:55.083Z,11.85
2022-11-17T07:49:23.656Z,11.77
2022-11-17T07:51:52.031Z,11.75
2022-11-17T07:54:20.614Z,11.75
2022-11-17T07:56:48.591Z,11.66
2022-11-17T07:59:21.197Z,11.65
2022-11-17T08:01:49.637Z,11.64
2022-11-17T08:04:18.013Z,11.59
2022-11-17T08:06:46.191Z,11.54
2022-11-17T08:09:16.116Z,11.69
2022-11-17T08:11:45.361Z,11.72
2022-11-17T08:14:13.580Z,11.70
2022-11-17T08:16:41.761Z,11.66
2022-11-17T08:19:14.631Z,11.55
2022-11-17T08:21:42.702Z,11.58
2022-11-17T08:24:12.204Z,11.51
2022-11-17T08:26:40.488Z,11.54
2022-11-17T08:29:08.854Z,11.54
2022-11-17T08:31:37.235Z,11.53
2022-11-17T08:34:05.612Z,11.67
2022-11-17T08:36:33.590Z,11.68
2022-11-17T08:39:01.548Z,11.70
2022-11-17T08:41:29.930Z,11.85
2022-11-17T08:43:58.409Z,11.99
2022-11-17T08:46:26.891Z,12.22
2022-11-17T08:48:57.097Z,12.37
2022-11-17T08:51:25.796Z,12.62
2022-11-17T08:53:53.762Z,12.89
2022-11-17T08:56:22.038Z,13.05
2022-11-17T08:58:50.105Z,13.35
2022-11-17T09:01:19.085Z,13.61
2022-11-17T09:03:48.085Z,13.79
2022-11-17T09:06:16.982Z,13.91
2022-11-17T09:08:47.457Z,13.98
2022-11-17T09:11:16.907Z,13.91
2022-11-17T09:13:47.166Z,13.95
2022-11-17T09:16:16.333Z,13.96
2022-11-17T09:18:44.808Z,13.88
2022-11-17T09:21:14.004Z,13.77
2022-11-17T09:23:42.591Z,13.78
2022-11-17T09:26:12.500Z,13.85
2022-11-17T09:28:41.062Z,13.94
2022-11-17T09:31:16.670Z,13.90
2022-11-17T09:33:44.931Z,13.85
2022-11-17T09:36:13.917Z,13.81
2022-11-17T09:38:42.135Z,13.76
2022-11-17T09:41:22.322Z,13.62
2022-11-17T09:43:59.690Z,13.24
2022-11-17T09:46:33.624Z,12.99
2022-11-17T09:49:11.112Z,12.81
2022-11-17T09:51:42.662Z,12.70
2022-11-17T09:54:18.906Z,12.55
2022-11-17T09:56:48.328Z,12.49
2022-11-17T09:59:19.474Z,12.75
2022-11-17T10:01:47.412Z,12.88
2022-11-17T10:04:17.012Z,12.99
2022-11-17T10:06:46.313Z,13.05
2022-11-17T10:09:26.442Z,13.23
2022-11-17T10:11:59.789Z,13.23
2022-11-17T10:14:28.425Z,13.31
2022-11-17T10:16:58.088Z,13.35
2022-11-17T10:19:27.987Z,13.55
2022-11-17T10:22:03.203Z,13.78
2022-11-17T10:24:42.782Z,13.74
2022-11-17T10:27:22.023Z,13.65
2022-11-17T10:30:00.629Z,13.57
2022-11-17T10:32:30.305Z,13.52
2022-11-17T10:35:15.511Z,13.34
2022-11-17T10:38:03.730Z,13.22
2022-11-17T10:40:33.150Z,13.05
2022-11-17T10:43:04.104Z,12.83
2022-11-17T10:45:32.839Z,12.84
2022-11-17T10:48:24.625Z,12.94
2022-11-17T10:50:58.845Z,12.98
2022-11-17T10:53:32.935Z,12.88
2022-11-17T10:56:25.089Z,12.82
2022-11-17T10:58:56.896Z,12.73
2022-11-17T11:01:31.879Z,12.49
2022-11-17T11:04:00.128Z,12.18
2022-11-17T11:06:29.918Z,12.18
2022-11-17T11:09:14.398Z,12.03
2022-11-17T11:11:49.653Z,11.91
2022-11-17T11:14:39.617Z,11.76
2022-11-17T11:17:15.376Z,11.73
2022-11-17T11:19:46.202Z,11.55
2022-11-17T11:22:23.187Z,11.41
2022-11-17T11:25:10.142Z,11.36
2022-11-17T11:27:48.308Z,11.37
2022-11-17T11:30:18.107Z,11.43
2022-11-17T11:33:01.846Z,11.39
2022-11-17T11:35:32.894Z,11.25
2022-11-17T11:38:19.905Z,11.22
2022-11-17T11:41:02.521Z,11.22
2022-11-17T11:43:40.216Z,11.20
2022-11-17T11:46:14.328Z,10.93
2022-11-17T11:48:42.298Z,10.69
2022-11-17T11:51:10.368Z,10.47
2022-11-17T11:53:44.463Z,10.36
2022-11-17T11:56:15.732Z,10.30
2022-11-17T11:58:51.788Z,10.21
2022-11-17T12:01:21.591Z,10.18
2022-11-17T12:03:56.868Z,10.18
2022-11-17T12:06:41.489Z,10.16
2022-11-17T12:09:25.122Z,10.16
2022-11-17T12:12:02.850Z,10.19
2022-11-17T12:14:32.258Z,10.15
2022-11-17T12:17:16.062Z,10.18
2022-11-17T12:19:44.238Z,10.19
2022-11-17T12:22:18.936Z,10.29
2022-11-17T12:24:47.134Z,10.35
2022-11-17T12:27:32.100Z,10.37
2022-11-17T12:30:01.087Z,10.36
2022-11-17T12:32:44.366Z,10.39
2022-11-17T12:35:29.156Z,10.37
2022-11-17T12:38:09.365Z,10.38
2022-11-17T12:40:41.615Z,10.38
2022-11-17T12:43:15.471Z,10.30
2022-11-17T12:45:58.743Z,10.34
2022-11-17T12:48:34.779Z,10.50
2022-11-17T12:51:06.558Z,10.56
2022-11-17T12:53:37.604Z,10.69
2022-11-17T12:56:18.522Z,10.82
2022-11-17T12:58:52.912Z,10.82
2022-11-17T13:01:39.876Z,10.85
2022-11-17T13:04:08.580Z,10.93
2022-11-17T13:06:37.019Z,10.92
2022-11-17T13:09:07.206Z,11.01
2022-11-17T13:11:35.453Z,11.10
2022-11-17T13:14:11.426Z,11.17
2022-11-17T13:16:48.621Z,11.19
2022-11-17T13:19:35.102Z,11.25
2022-11-17T13:22:06.013Z,11.24
2022-11-17T13:24:35.723Z,11.37
2022-11-17T13:27:07.789Z,11.33
2022-11-17T13:29:36.144Z,11.36
2022-11-17T13:32:21.035Z,11.41
2022-11-17T13:34:53.837Z,11.39
2022-11-17T13:37:26.407Z,11.43
2022-11-17T13:39:55.302Z,11.36
2022-11-17T13:42:25.040Z,11.41
2022-11-17T13:44:57.588Z,11.46
2022-11-17T13:47:41.319Z,11.29
2022-11-17T13:50:21.584Z,11.15
2022-11-17T13:53:00.922Z,11.04
2022-11-17T13:55:29.602Z,11.09
2022-11-17T13:58:00.201Z,11.21
2022-11-17T14:00:29.527Z,11.27
2022-11-17T14:02:59.030Z,11.36
2022-11-17T14:05:29.047Z,11.41
2022-11-17T14:07:58.656Z,11.30
2022-11-17T14:10:28.235Z,11.32
2022-11-17T14:13:00.235Z,11.44
2022-11-17T14:15:34.712Z,11.60
2022-11-17T14:18:05.681Z,11.72
2022-11-17T14:20:34.682Z,11.74
2022-11-17T14:23:09.098Z,11.87
2022-11-17T14:25:39.828Z,11.79
2022-11-17T14:28:14.327Z,11.75
2022-11-17T14:30:42.314Z,11.74
2022-11-17T14:33:13.537Z,11.73
2022-11-17T14:35:43.064Z,11.85
2022-11-17T14:38:14.513Z,11.86
2022-11-17T14:40:42.449Z,11.81
2022-11-17T14:43:10.429Z,11.70
2022-11-17T14:45:38.919Z,11.68
2022-11-17T14:48:07.308Z,11.61
2022-11-17T14:50:35.199Z,11.50
2022-11-17T14:53:03.530Z,11.49
2022-11-17T14:55:31.527Z,11.55
2022-11-17T14:57:59.511Z,11.58
2022-11-17T15:00:27.870Z,11.52
2022-11-17T15:02:55.942Z,11.44
2022-11-17T15:05:24.144Z,11.33
2022-11-17T15:07:52.383Z,11.37
2022-11-17T15:10:20.664Z,11.47
2022-11-17T15:12:48.630Z,11.44
2022-11-17T15:15:18.172Z,11.39
2022-11-17T15:17:46.307Z,11.41
2022-11-17T15:20:14.312Z,11.28
2022-11-17T15:22:42.550Z,11.03
2022-11-17T15:25:10.562Z,10.98
2022-11-17T15:27:38.794Z,10.86
2022-11-17T15:30:07.100Z,10.61
2022-11-17T15:32:36.366Z,10.48
2022-11-17T15:35:04.436Z,10.27
2022-11-17T15:37:32.405Z,10.14
2022-11-17T15:40:00.643Z,9.96
2022-11-17T15:42:28.764Z,9.90
2022-11-17T15:44:56.717Z,9.89
2022-11-17T15:47:24.891Z,9.91
2022-11-17T15:49:58.673Z,9.94
2022-11-17T15:52:48.867Z,9.96
2022-11-17T15:55:14.804Z,9.99
2022-11-17T15:57:43.489Z,10.05
2022-11-17T16:00:12.177Z,10.04
2022-11-17T16:02:43.727Z,9.93
2022-11-17T16:05:11.703Z,9.90
2022-11-17T16:07:40.180Z,10.06
2022-11-17T16:10:08.859Z,10.23
2022-11-17T16:12:36.838Z,10.38
2022-11-17T16:15:05.313Z,10.49
2022-11-17T16:17:33.276Z,10.58
2022-11-17T16:20:01.454Z,10.67
2022-11-17T16:22:29.975Z,10.69
2022-11-17T16:24:58.409Z,10.76
2022-11-17T16:27:26.383Z,10.74
2022-11-17T16:29:54.350Z,10.85
2022-11-17T16:32:22.396Z,10.93
2022-11-17T16:34:50.485Z,10.81
2022-11-17T16:37:18.559Z,10.86
2022-11-17T16:39:46.524Z,10.79
2022-11-17T16:42:14.902Z,10.79
2022-11-17T16:44:43.049Z,10.78
2022-11-17T16:47:11.259Z,10.76
2022-11-17T16:49:39.318Z,10.66
2022-11-17T16:52:07.601Z,10.58
2022-11-17T16:54:35.569Z,10.52
2022-11-17T16:57:03.549Z,10.51
2022-11-17T16:59:31.470Z,10.51
2022-11-17T17:01:59.420Z,10.45
2022-11-17T17:04:30.116Z,10.45
2022-11-17T17:06:58.747Z,10.55
2022-11-17T17:09:28.203Z,10.44
2022-11-17T17:11:56.670Z,10.56
2022-11-17T17:14:24.737Z,10.64
2022-11-17T17:16:52.907Z,10.50
2022-11-17T17:19:20.781Z,10.53
2022-11-17T17:21:48.946Z,10.57
2022-11-17T17:24:17.222Z,10.73
2022-11-17T17:26:45.394Z,10.90
2022-11-17T17:29:14.324Z,10.87
2022-11-17T17:31:42.768Z,11.00
2022-11-17T17:34:12.372Z,11.08
2022-11-17T17:36:40.956Z,11.13
2022-11-17T17:39:14.307Z,11.08
2022-11-17T17:41:44.418Z,11.01
2022-11-17T17:44:16.843Z,11.01
2022-11-17T17:46:45.831Z,11.12
2022-11-17T17:49:14.761Z,11.14
2022-11-17T17:51:44.608Z,11.13
2022-11-17T17:54:17.313Z,11.24
2022-11-17T17:56:45.900Z,11.29
2022-11-17T17:59:14.365Z,11.34
2022-11-17T18:01:42.561Z,11.43
2022-11-17T18:04:15.520Z,11.49
2022-11-17T18:06:47.585Z,11.61
2022-11-17T18:09:19.237Z,11.78
2022-11-17T18:11:50.560Z,11.83
2022-11-17T18:14:29.220Z,11.99
2022-11-17T18:16:57.596Z,12.13
2022-11-17T18:19:31.400Z,12.14
2022-11-17T18:22:01.413Z,12.14
2022-11-17T18:24:29.580Z,12.10
2022-11-17T18:26:57.559Z,12.00
2022-11-17T18:29:25.604Z,11.99
2022-11-17T18:31:53.907Z,12.12
2022-11-17T18:34:23.008Z,11.89
2022-11-17T18:36:52.081Z,11.61
2022-11-17T18:39:21.495Z,11.50
2022-11-17T18:41:49.872Z,11.25
2022-11-17T18:44:20.630Z,11.04
2022-11-17T18:46:48.985Z,11.06
2022-11-17T18:49:17.397Z,11.13
2022-11-17T18:51:46.558Z,11.22
2022-11-17T18:54:14.631Z,11.20
2022-11-17T18:56:44.447Z,11.19
2022-11-17T18:59:12.753Z,11.16
2022-11-17T19:01:41.989Z,11.25
2022-11-17T19:04:11.824Z,11.28
2022-11-17T19:06:39.793Z,11.21
2022-11-17T19:09:08.483Z,11.36
2022-11-17T19:11:37.250Z,11.31
2022-11-17T19:14:08.133Z,11.43
2022-11-17T19:16:44.441Z,11.45
2022-11-17T19:19:14.065Z,11.28
2022-11-17T19:21:42.888Z,11.10
2022-11-17T19:24:12.384Z,10.86
2022-11-17T19:26:40.740Z,10.73
2022-11-17T19:29:16.136Z,10.68
2022-11-17T19:31:45.895Z,10.62
2022-11-17T19:34:14.652Z,10.51
2022-11-17T19:36:42.648Z,10.40
2022-11-17T19:39:11.711Z,10.31
2022-11-17T19:41:40.123Z,10.22
2022-11-17T19:44:09.017Z,10.17
2022-11-17T19:46:37.491Z,10.11
2022-11-17T19:49:06.342Z,10.36
2022-11-17T19:51:36.823Z,10.20
2022-11-17T19:54:06.525Z,9.63
2022-11-17T19:56:35.442Z,9.39
2022-11-17T19:59:03.862Z,9.39
2022-11-17T20:01:32.289Z,9.52
2022-11-17T20:04:01.255Z,9.70
2022-11-17T20:06:32.003Z,9.87
2022-11-17T20:09:00.075Z,9.92
2022-11-17T20:11:28.849Z,9.83
2022-11-17T20:13:56.995Z,9.65
2022-11-17T20:16:26.340Z,9.56
2022-11-17T20:18:55.479Z,9.59
2022-11-17T20:21:23.954Z,9.84
2022-11-17T20:23:52.572Z,10.08
2022-11-17T20:26:22.592Z,10.07
2022-11-17T20:28:50.865Z,9.96
2022-11-17T20:31:20.471Z,9.98
2022-11-17T20:33:48.747Z,10.14
2022-11-17T20:36:18.439Z,10.31
2022-11-17T20:38:53.797Z,10.46
2022-11-17T20:41:23.482Z,10.66
2022-11-17T20:43:52.701Z,10.77
2022-11-17T20:46:21.366Z,10.73
2022-11-17T20:48:49.560Z,10.71
2022-11-17T20:51:18.862Z,10.73
2022-11-17T20:53:47.341Z,10.78
2022-11-17T20:56:18.640Z,10.73
2022-11-17T20:58:46.761Z,10.77
2022-11-17T21:01:16.118Z,10.84
2022-11-17T21:03:45.487Z,10.86
2022-11-17T21:06:14.249Z,10.90
2022-11-17T21:08:43.498Z,10.95
2022-11-17T21:11:36.115Z,10.94
2022-11-17T21:14:05.632Z,10.82
2022-11-17T21:16:34.994Z,10.77
2022-11-17T21:19:03.271Z,10.74
2022-11-17T21:21:31.344Z,10.53
2022-11-17T21:23:59.845Z,10.27
2022-11-17T21:26:30.862Z,10.14
2022-11-17T21:29:04.804Z,10.22
2022-11-17T21:31:35.302Z,10.18
2022-11-17T21:34:04.776Z,10.11
2022-11-17T21:36:34.512Z,10.08
2022-11-17T21:39:02.787Z,10.27
2022-11-17T21:41:31.983Z,10.40
2022-11-17T21:44:01.945Z,10.44
2022-11-17T21:46:31.211Z,10.53
2022-11-17T21:49:00.097Z,10.63
2022-11-17T21:51:30.078Z,10.68
2022-11-17T21:53:58.993Z,10.69
2022-11-17T21:56:27.897Z,10.68
2022-11-17T21:58:57.384Z,10.59
2022-11-17T22:01:25.473Z,10.58
2022-11-17T22:03:53.635Z,10.64
2022-11-17T22:06:23.114Z,10.63
2022-11-17T22:08:51.589Z,10.54
2022-11-17T22:11:39.221Z,10.25
2022-11-17T22:14:14.225Z,10.01
2022-11-17T22:16:43.829Z,10.07
2022-11-17T22:19:12.698Z,10.19
2022-11-17T22:21:41.281Z,10.12
2022-11-17T22:24:10.347Z,9.85
2022-11-17T22:26:41.199Z,9.80
2022-11-17T22:29:17.451Z,9.72
2022-11-17T22:31:46.537Z,9.65
2022-11-17T22:34:14.710Z,9.75
2022-11-17T22:36:43.197Z,10.00
2022-11-17T22:39:11.221Z,10.28
2022-11-17T22:41:39.645Z,10.49
2022-11-17T22:44:07.702Z,10.69
2022-11-17T22:46:36.424Z,10.87
2022-11-17T22:49:04.467Z,10.97
2022-11-17T22:51:51.270Z,11.03
2022-11-17T22:54:20.064Z,11.07
2022-11-17T22:56:48.651Z,11.10
2022-11-17T22:59:16.736Z,11.09
2022-11-17T23:01:45.094Z,10.96
2022-11-17T23:04:14.095Z,10.98
2022-11-17T23:06:42.572Z,11.12
2022-11-17T23:09:11.054Z,11.30
2022-11-17T23:11:39.219Z,11.36
2022-11-17T23:14:09.240Z,11.30
2022-11-17T23:16:37.815Z,11.20
2022-11-17T23:19:06.703Z,11.23
2022-11-17T23:21:35.085Z,11.35
2022-11-17T23:24:04.288Z,11.33
2022-11-17T23:26:32.355Z,11.01
2022-11-17T23:29:00.531Z,10.76
2022-11-17T23:31:28.704Z,10.63
2022-11-17T23:33:57.189Z,10.62
2022-11-17T23:36:25.355Z,10.57
2022-11-17T23:38:55.981Z,10.43
2022-11-17T23:41:24.255Z,10.50
2022-11-17T23:43:53.356Z,10.64
2022-11-17T23:46:23.060Z,10.47
2022-11-17T23:48:51.180Z,10.54
2022-11-17T23:51:20.619Z,10.38
2022-11-17T23:53:49.679Z,10.48
2022-11-17T23:56:19.496Z,10.63
2022-11-17T23:58:47.533Z,10.83
